createdAt,value
2023-04-02T00:00:11.701Z,101011.84
2023-04-02T00:01:01.302Z,101027.03
2023-04-02T00:01:38.419Z,101031.16
2023-04-02T00:02:21.904Z,101017.13
2023-04-02T00:03:01.402Z,101026.34
2023-04-02T00:03:45.064Z,101035.91
2023-04-02T00:04:23.647Z,101037.88
2023-04-02T00:05:19.559Z,101031.78
2023-04-02T00:05:51.447Z,101039.88
2023-04-02T00:06:30.042Z,101044.16
2023-04-02T00:07:33.718Z,101038.06
2023-04-02T00:08:18.074Z,101043.34
2023-04-02T00:08:50.760Z,101043.34
2023-04-02T00:09:26.126Z,101044.16
2023-04-02T00:09:58.149Z,101044.81
2023-04-02T00:10:33.218Z,101057.38
2023-04-02T00:11:05.464Z,101045.81
2023-04-02T00:11:39.902Z,101054.38
2023-04-02T00:12:15.949Z,101041.53
2023-04-02T00:13:00.806Z,101054.38
2023-04-02T00:13:35.754Z,101049.09
2023-04-02T00:14:26.126Z,101046.44
2023-04-02T00:14:58.713Z,101050.09
2023-04-02T00:15:30.934Z,101058.00
2023-04-02T00:16:05.458Z,101054.53
2023-04-02T00:16:37.093Z,101059.66
2023-04-02T00:17:08.919Z,101069.84
2023-04-02T00:17:40.440Z,101068.22
2023-04-02T00:18:20.214Z,101066.41
2023-04-02T00:18:54.597Z,101070.22
2023-04-02T00:19:36.619Z,101062.28
2023-04-02T00:20:09.159Z,101063.63
2023-04-02T00:20:42.852Z,101064.28
2023-04-02T00:21:22.163Z,101059.19
2023-04-02T00:21:54.192Z,101075.50
2023-04-02T00:22:29.459Z,101070.91
2023-04-02T00:23:02.655Z,101067.44
2023-04-02T00:23:37.694Z,101068.09
2023-04-02T00:24:18.492Z,101078.47
2023-04-02T00:24:52.951Z,101076.66
2023-04-02T00:25:28.224Z,101077.66
2023-04-02T00:25:59.851Z,101071.38
2023-04-02T00:26:37.931Z,101077.84
2023-04-02T00:27:14.402Z,101074.19
2023-04-02T00:27:46.170Z,101076.00
2023-04-02T00:28:23.122Z,101081.13
2023-04-02T00:28:55.117Z,101086.03
2023-04-02T00:29:26.929Z,101087.03
2023-04-02T00:29:59.395Z,101078.31
2023-04-02T00:30:30.988Z,101089.03
2023-04-02T00:31:02.649Z,101090.31
2023-04-02T00:31:34.877Z,101088.03
2023-04-02T00:32:06.667Z,101081.13
2023-04-02T00:32:38.805Z,101090.84
2023-04-02T00:33:16.012Z,101079.81
2023-04-02T00:33:49.127Z,101089.09
2023-04-02T00:34:34.006Z,101087.09
2023-04-02T00:35:12.929Z,101092.72
2023-04-02T00:35:44.706Z,101094.19
2023-04-02T00:36:20.057Z,101093.19
2023-04-02T00:36:52.679Z,101098.00
2023-04-02T00:37:28.221Z,101093.06
2023-04-02T00:38:00.413Z,101091.41
2023-04-02T00:38:33.520Z,101086.00
2023-04-02T00:39:12.890Z,101103.81
2023-04-02T00:39:46.114Z,101103.81
2023-04-02T00:40:23.063Z,101099.69
2023-04-02T00:40:57.618Z,101098.88
2023-04-02T00:41:31.337Z,101098.88
2023-04-02T00:42:06.402Z,101099.69
2023-04-02T00:42:40.179Z,101109.59
2023-04-02T00:43:16.702Z,101106.97
2023-04-02T00:43:50.837Z,101105.66
2023-04-02T00:44:23.798Z,101107.94
2023-04-02T00:44:56.011Z,101114.69
2023-04-02T00:45:30.338Z,101111.41
2023-04-02T00:46:04.707Z,101102.03
2023-04-02T00:46:49.749Z,101110.59
2023-04-02T00:47:23.021Z,101118.34
2023-04-02T00:47:56.145Z,101116.69
2023-04-02T00:48:33.654Z,101110.75
2023-04-02T00:49:11.331Z,101113.88
2023-04-02T00:49:43.360Z,101114.06
2023-04-02T00:50:15.579Z,101116.84
2023-04-02T00:50:48.025Z,101116.22
2023-04-02T00:51:23.960Z,101120.50
2023-04-02T00:52:01.746Z,101119.50
2023-04-02T00:52:33.832Z,101126.06
2023-04-02T00:53:11.635Z,101124.44
2023-04-02T00:53:46.322Z,101122.78
2023-04-02T00:54:20.806Z,101122.97
2023-04-02T00:54:59.338Z,101124.44
2023-04-02T00:55:39.510Z,101127.06
2023-04-02T00:56:19.244Z,101129.72
2023-04-02T00:56:53.415Z,101132.53
2023-04-02T00:57:26.040Z,101128.88
2023-04-02T00:57:58.794Z,101128.06
2023-04-02T00:58:35.542Z,101134.34
2023-04-02T00:59:20.921Z,101127.41
2023-04-02T01:00:04.020Z,101132.84
2023-04-02T01:00:36.344Z,101130.41
2023-04-02T01:01:17.467Z,101130.69
2023-04-02T01:01:54.371Z,101135.31
2023-04-02T01:02:33.824Z,101136.16
2023-04-02T01:03:16.275Z,101125.47
2023-04-02T01:04:01.822Z,101133.38
2023-04-02T01:04:34.890Z,101138.81
2023-04-02T01:05:15.588Z,101141.28
2023-04-02T01:05:50.605Z,101131.06
2023-04-02T01:06:22.247Z,101140.63
2023-04-02T01:06:54.226Z,101137.19
2023-04-02T01:07:55.027Z,101135.06
2023-04-02T01:08:31.341Z,101145.59
2023-04-02T01:09:27.367Z,101139.50
2023-04-02T01:10:26.662Z,101141.66
2023-04-02T01:10:58.244Z,101137.38
2023-04-02T01:11:59.113Z,101140.00
2023-04-02T01:12:51.776Z,101140.19
2023-04-02T01:13:56.030Z,101146.94
2023-04-02T01:14:37.663Z,101151.56
2023-04-02T01:15:30.443Z,101146.28
2023-04-02T01:16:11.852Z,101146.75
2023-04-02T01:16:47.504Z,101138.03
2023-04-02T01:17:30.494Z,101149.22
2023-04-02T01:18:31.161Z,101149.22
2023-04-02T01:19:08.742Z,101150.56
2023-04-02T01:19:50.384Z,101144.94
2023-04-02T01:20:56.778Z,101149.72
2023-04-02T01:21:55.688Z,101148.56
2023-04-02T01:22:35.230Z,101148.91
2023-04-02T01:23:08.046Z,101161.09
2023-04-02T01:23:53.237Z,101155.50
2023-04-02T01:24:31.021Z,101169.50
2023-04-02T01:25:04.540Z,101158.78
2023-04-02T01:25:41.449Z,101160.13
2023-04-02T01:26:28.059Z,101155.66
2023-04-02T01:27:02.125Z,101164.41
2023-04-02T01:27:46.105Z,101167.03
2023-04-02T01:28:21.037Z,101171.31
2023-04-02T01:28:55.394Z,101167.50
2023-04-02T01:29:29.962Z,101160.94
2023-04-02T01:30:03.605Z,101157.31
2023-04-02T01:30:36.612Z,101178.22
2023-04-02T01:31:09.993Z,101172.47
2023-04-02T01:31:42.438Z,101162.59
2023-04-02T01:32:16.728Z,101177.25
2023-04-02T01:32:49.599Z,101170.31
2023-04-02T01:33:23.892Z,101168.69
2023-04-02T01:33:56.364Z,101178.22
2023-04-02T01:34:29.157Z,101172.97
2023-04-02T01:35:01.399Z,101177.25
2023-04-02T01:35:36.703Z,101178.75
2023-04-02T01:36:26.270Z,101180.41
2023-04-02T01:37:02.765Z,101184.84
2023-04-02T01:37:44.856Z,101184.03
2023-04-02T01:38:27.486Z,101184.84
2023-04-02T01:39:05.387Z,101184.03
2023-04-02T01:39:49.695Z,101187.31
2023-04-02T01:40:52.541Z,101191.59
2023-04-02T01:41:31.784Z,101187.31
2023-04-02T01:42:44.674Z,101194.25
2023-04-02T01:43:25.412Z,101202.97
2023-04-02T01:44:04.664Z,101203.13
2023-04-02T01:44:40.456Z,101206.59
2023-04-02T01:45:14.807Z,101202.16
2023-04-02T01:45:46.414Z,101196.22
2023-04-02T01:46:26.492Z,101202.63
2023-04-02T01:47:00.818Z,101205.25
2023-04-02T01:47:33.201Z,101207.06
2023-04-02T01:48:24.933Z,101202.63
2023-04-02T01:48:57.275Z,101203.28
2023-04-02T01:49:28.846Z,101209.56
2023-04-02T01:50:20.466Z,101207.25
2023-04-02T01:50:55.097Z,101212.88
2023-04-02T01:51:30.450Z,101203.47
2023-04-02T01:52:02.626Z,101215.84
2023-04-02T01:52:41.150Z,101213.19
2023-04-02T01:53:15.598Z,101216.50
2023-04-02T01:53:47.144Z,101220.13
2023-04-02T01:54:19.768Z,101221.09
2023-04-02T01:54:52.806Z,101217.47
2023-04-02T01:55:44.214Z,101224.75
2023-04-02T01:56:15.671Z,101223.59
2023-04-02T01:56:47.712Z,101228.03
2023-04-02T01:57:19.405Z,101229.69
2023-04-02T01:57:53.024Z,101229.84
2023-04-02T01:58:27.277Z,101233.31
2023-04-02T01:59:00.449Z,101231.66
2023-04-02T01:59:34.302Z,101230.03
2023-04-02T02:00:12.599Z,101232.66
2023-04-02T02:00:58.617Z,101228.38
2023-04-02T02:01:51.861Z,101241.84
2023-04-02T02:02:23.663Z,101236.09
2023-04-02T02:02:55.420Z,101236.25
2023-04-02T02:03:27.394Z,101245.63
2023-04-02T02:03:59.535Z,101247.47
2023-04-02T02:04:32.276Z,101226.53
2023-04-02T02:05:04.471Z,101237.91
2023-04-02T02:05:37.338Z,101243.00
2023-04-02T02:06:13.149Z,101243.16
2023-04-02T02:06:45.719Z,101235.44
2023-04-02T02:07:20.583Z,101239.88
2023-04-02T02:07:57.274Z,101245.97
2023-04-02T02:08:50.520Z,101258.31
2023-04-02T02:09:26.051Z,101248.28
2023-04-02T02:09:57.886Z,101253.22
2023-04-02T02:10:36.473Z,101259.66
2023-04-02T02:11:13.386Z,101261.28
2023-04-02T02:11:44.959Z,101266.06
2023-04-02T02:12:16.930Z,101261.63
2023-04-02T02:12:48.749Z,101267.72
2023-04-02T02:13:21.902Z,101260.78
2023-04-02T02:13:57.433Z,101264.91
2023-04-02T02:14:30.999Z,101269.69
2023-04-02T02:15:02.744Z,101269.53
2023-04-02T02:15:36.457Z,101266.91
2023-04-02T02:16:15.237Z,101279.41
2023-04-02T02:16:47.713Z,101266.22
2023-04-02T02:17:26.598Z,101268.69
2023-04-02T02:18:00.591Z,101262.78
2023-04-02T02:18:32.624Z,101273.16
2023-04-02T02:19:04.953Z,101269.84
2023-04-02T02:19:38.683Z,101272.13
2023-04-02T02:20:11.244Z,101262.72
2023-04-02T02:20:43.085Z,101269.66
2023-04-02T02:21:29.042Z,101262.72
2023-04-02T02:22:29.823Z,101270.81
2023-04-02T02:23:01.957Z,101265.84
2023-04-02T02:23:33.715Z,101272.28
2023-04-02T02:24:07.962Z,101275.88
2023-04-02T02:24:41.084Z,101279.69
2023-04-02T02:25:19.714Z,101279.84
2023-04-02T02:25:51.465Z,101270.94
2023-04-02T02:26:24.366Z,101285.94
2023-04-02T02:27:22.883Z,101280.66
2023-04-02T02:28:18.710Z,101278.69
2023-04-02T02:28:52.799Z,101282.31
2023-04-02T02:29:26.417Z,101284.13
2023-04-02T02:30:06.201Z,101277.03
2023-04-02T02:30:43.763Z,101279.69
2023-04-02T02:31:28.064Z,101281.66
2023-04-02T02:32:01.957Z,101283.97
2023-04-02T02:32:36.210Z,101289.56
2023-04-02T02:33:27.308Z,101286.25
2023-04-02T02:34:09.260Z,101290.53
2023-04-02T02:34:46.335Z,101268.81
2023-04-02T02:35:22.184Z,101289.88
2023-04-02T02:36:00.713Z,101279.34
2023-04-02T02:37:02.561Z,101282.78
2023-04-02T02:37:37.442Z,101282.31
2023-04-02T02:38:36.400Z,101289.56
2023-04-02T02:39:25.949Z,101298.13
2023-04-02T02:39:59.491Z,101291.19
2023-04-02T02:40:37.528Z,101295.47
2023-04-02T02:41:33.603Z,101301.41
2023-04-02T02:42:18.652Z,101302.25
2023-04-02T02:42:57.943Z,101299.44
2023-04-02T02:43:30.074Z,101307.81
2023-04-02T02:44:11.617Z,101304.22
2023-04-02T02:44:45.447Z,101311.28
2023-04-02T02:45:21.444Z,101308.84
2023-04-02T02:45:54.095Z,101308.31
2023-04-02T02:46:29.858Z,101308.31
2023-04-02T02:47:13.998Z,101320.50
2023-04-02T02:47:46.296Z,101312.44
2023-04-02T02:48:19.761Z,101322.16
2023-04-02T02:48:54.052Z,101314.25
2023-04-02T02:49:28.754Z,101324.97
2023-04-02T02:50:07.789Z,101318.88
2023-04-02T02:50:40.088Z,101319.69
2023-04-02T02:51:21.946Z,101322.50
2023-04-02T02:51:57.953Z,101313.91
2023-04-02T02:52:37.053Z,101324.47
2023-04-02T02:53:21.208Z,101325.28
2023-04-02T02:53:56.083Z,101326.09
2023-04-02T02:54:29.011Z,101323.47
2023-04-02T02:55:11.351Z,101332.03
2023-04-02T02:56:12.670Z,101330.56
2023-04-02T02:56:50.298Z,101326.09
2023-04-02T02:57:26.260Z,101332.69
2023-04-02T02:58:26.462Z,101337.00
2023-04-02T02:59:07.754Z,101337.31
2023-04-02T02:59:45.146Z,101332.38
2023-04-02T03:00:19.491Z,101340.59
2023-04-02T03:00:51.658Z,101339.63
2023-04-02T03:01:23.270Z,101335.84
2023-04-02T03:01:58.847Z,101342.09
2023-04-02T03:02:30.692Z,101348.84
2023-04-02T03:03:24.432Z,101347.88
2023-04-02T03:04:01.168Z,101347.03
2023-04-02T03:04:35.677Z,101353.13
2023-04-02T03:05:17.137Z,101353.13
2023-04-02T03:05:56.464Z,101358.06
2023-04-02T03:06:28.227Z,101352.47
2023-04-02T03:07:06.638Z,101348.50
2023-04-02T03:07:38.591Z,101359.38
2023-04-02T03:08:23.095Z,101362.00
2023-04-02T03:09:05.831Z,101350.81
2023-04-02T03:09:54.002Z,101369.41
2023-04-02T03:10:44.218Z,101364.28
2023-04-02T03:11:33.640Z,101362.47
2023-04-02T03:12:28.138Z,101368.22
2023-04-02T03:13:08.811Z,101363.28
2023-04-02T03:13:46.674Z,101360.94
2023-04-02T03:14:39.193Z,101369.50
2023-04-02T03:15:27.627Z,101367.34
2023-04-02T03:16:16.742Z,101366.00
2023-04-02T03:16:57.738Z,101373.09
2023-04-02T03:17:41.502Z,101372.09
2023-04-02T03:18:22.064Z,101367.81
2023-04-02T03:19:08.532Z,101376.03
2023-04-02T03:19:42.594Z,101377.69
2023-04-02T03:20:22.189Z,101374.38
2023-04-02T03:20:58.233Z,101374.06
2023-04-02T03:21:51.745Z,101375.72
2023-04-02T03:22:32.337Z,101383.94
2023-04-02T03:23:03.901Z,101378.50
2023-04-02T03:23:40.702Z,101389.03
2023-04-02T03:24:33.754Z,101383.25
2023-04-02T03:25:20.110Z,101374.69
2023-04-02T03:26:03.377Z,101385.53
2023-04-02T03:26:44.453Z,101390.00
2023-04-02T03:27:21.169Z,101382.25
2023-04-02T03:27:58.642Z,101387.50
2023-04-02T03:28:33.308Z,101388.66
2023-04-02T03:29:10.794Z,101393.38
2023-04-02T03:30:04.501Z,101390.75
2023-04-02T03:30:42.374Z,101397.00
2023-04-02T03:31:20.399Z,101390.38
2023-04-02T03:31:58.157Z,101397.31
2023-04-02T03:32:33.099Z,101401.75
2023-04-02T03:33:11.432Z,101398.94
2023-04-02T03:33:49.757Z,101408.66
2023-04-02T03:34:25.670Z,101405.88
2023-04-02T03:35:03.697Z,101405.72
2023-04-02T03:35:43.343Z,101411.53
2023-04-02T03:36:31.175Z,101406.25
2023-04-02T03:37:18.486Z,101408.88
2023-04-02T03:38:02.518Z,101410.84
2023-04-02T03:38:43.550Z,101412.66
2023-04-02T03:39:24.316Z,101417.19
2023-04-02T03:40:08.911Z,101416.34
2023-04-02T03:41:02.215Z,101406.09
2023-04-02T03:41:39.398Z,101413.97
2023-04-02T03:42:25.244Z,101424.66
2023-04-02T03:43:04.272Z,101423.16
2023-04-02T03:43:41.182Z,101419.16
2023-04-02T03:44:26.752Z,101427.22
2023-04-02T03:45:03.815Z,101425.41
2023-04-02T03:45:44.318Z,101425.03
2023-04-02T03:46:38.367Z,101438.72
2023-04-02T03:47:40.533Z,101430.28
2023-04-02T03:48:17.231Z,101436.53
2023-04-02T03:48:51.809Z,101440.81
2023-04-02T03:49:33.601Z,101431.75
2023-04-02T03:50:17.687Z,101443.09
2023-04-02T03:50:58.389Z,101444.88
2023-04-02T03:51:48.557Z,101443.38
2023-04-02T03:52:26.031Z,101442.41
2023-04-02T03:52:59.425Z,101446.19
2023-04-02T03:53:32.478Z,101442.56
2023-04-02T03:54:04.760Z,101447.00
2023-04-02T03:54:36.585Z,101455.72
2023-04-02T03:55:16.887Z,101447.00
2023-04-02T03:55:49.978Z,101442.72
2023-04-02T03:56:39.788Z,101454.38
2023-04-02T03:57:25.803Z,101450.75
2023-04-02T03:58:18.567Z,101440.41
2023-04-02T03:58:56.611Z,101450.09
2023-04-02T03:59:31.910Z,101453.53
2023-04-02T04:00:20.391Z,101450.25
2023-04-02T04:01:17.750Z,101456.75
2023-04-02T04:02:16.247Z,101462.00
2023-04-02T04:02:59.162Z,101459.25
2023-04-02T04:03:39.593Z,101468.66
2023-04-02T04:04:16.407Z,101455.66
2023-04-02T04:04:48.764Z,101468.13
2023-04-02T04:05:28.033Z,101463.97
2023-04-02T04:06:07.032Z,101467.72
2023-04-02T04:06:42.524Z,101469.69
2023-04-02T04:07:28.320Z,101480.06
2023-04-02T04:08:06.215Z,101483.66
2023-04-02T04:08:50.466Z,101481.72
2023-04-02T04:09:24.960Z,101485.00
2023-04-02T04:09:57.095Z,101485.00
2023-04-02T04:10:29.438Z,101483.34
2023-04-02T04:11:04.174Z,101488.63
2023-04-02T04:11:38.949Z,101492.06
2023-04-02T04:12:35.771Z,101486.97
2023-04-02T04:13:14.112Z,101492.53
2023-04-02T04:13:59.833Z,101495.84
2023-04-02T04:14:33.717Z,101492.53
2023-04-02T04:15:08.891Z,101496.44
2023-04-02T04:15:48.509Z,101499.75
2023-04-02T04:16:48.903Z,101506.94
2023-04-02T04:17:34.868Z,101510.56
2023-04-02T04:18:29.836Z,101508.91
2023-04-02T04:19:03.988Z,101504.78
2023-04-02T04:19:47.626Z,101510.19
2023-04-02T04:20:24.969Z,101518.06
2023-04-02T04:21:04.920Z,101505.38
2023-04-02T04:21:45.210Z,101524.91
2023-04-02T04:22:31.807Z,101518.66
2023-04-02T04:23:25.733Z,101520.63
2023-04-02T04:24:03.836Z,101520.88
2023-04-02T04:24:39.406Z,101527.94
2023-04-02T04:25:29.753Z,101528.09
2023-04-02T04:26:39.613Z,101533.78
2023-04-02T04:27:33.539Z,101532.28
2023-04-02T04:28:21.436Z,101538.38
2023-04-02T04:29:30.106Z,101530.63
2023-04-02T04:30:24.402Z,101529.81
2023-04-02T04:31:04.282Z,101537.00
2023-04-02T04:31:55.661Z,101540.47
2023-04-02T04:32:35.421Z,101545.03
2023-04-02T04:33:23.225Z,101541.59
2023-04-02T04:34:05.096Z,101548.34
2023-04-02T04:34:46.788Z,101548.63
2023-04-02T04:35:50.231Z,101544.06
2023-04-02T04:36:29.109Z,101541.44
2023-04-02T04:37:21.544Z,101553.31
2023-04-02T04:38:03.583Z,101552.47
2023-04-02T04:38:39.144Z,101555.25
2023-04-02T04:39:17.587Z,101550.28
2023-04-02T04:40:06.278Z,101550.84
2023-04-02T04:40:44.698Z,101553.59
2023-04-02T04:41:18.893Z,101551.94
2023-04-02T04:41:53.558Z,101564.13
2023-04-02T04:42:31.207Z,101561.09
2023-04-02T04:43:09.285Z,101552.53
2023-04-02T04:43:56.298Z,101557.50
2023-04-02T04:45:09.020Z,101568.31
2023-04-02T04:46:11.235Z,101561.69
2023-04-02T04:46:49.432Z,101564.03
2023-04-02T04:47:31.051Z,101565.69
2023-04-02T04:48:08.642Z,101569.00
2023-04-02T04:48:51.056Z,101565.81
2023-04-02T04:49:31.862Z,101574.38
2023-04-02T04:50:15.670Z,101564.72
2023-04-02T04:51:03.095Z,101560.84
2023-04-02T04:52:00.560Z,101575.50
2023-04-02T04:52:40.020Z,101579.78
2023-04-02T04:53:24.638Z,101579.94
2023-04-02T04:53:57.870Z,101579.13
2023-04-02T04:54:32.460Z,101576.63
2023-04-02T04:55:26.211Z,101574.41
2023-04-02T04:56:16.527Z,101578.16
2023-04-02T04:56:56.387Z,101580.78
2023-04-02T04:57:32.209Z,101579.94
2023-04-02T04:58:11.969Z,101581.59
2023-04-02T04:58:53.482Z,101582.28
2023-04-02T04:59:31.562Z,101572.34
2023-04-02T05:00:45.626Z,101582.19
2023-04-02T05:01:23.455Z,101582.72
2023-04-02T05:02:12.127Z,101582.88
2023-04-02T05:02:58.213Z,101596.00
2023-04-02T05:03:37.029Z,101592.41
2023-04-02T05:04:34.847Z,101598.50
2023-04-02T05:05:18.097Z,101602.63
2023-04-02T05:05:50.998Z,101605.41
2023-04-02T05:06:42.884Z,101613.13
2023-04-02T05:07:45.162Z,101610.13
2023-04-02T05:08:27.104Z,101611.66
2023-04-02T05:09:01.700Z,101614.28
2023-04-02T05:09:38.450Z,101609.03
2023-04-02T05:10:25.812Z,101616.22
2023-04-02T05:11:01.288Z,101615.94
2023-04-02T05:11:42.693Z,101613.59
2023-04-02T05:12:35.339Z,101623.44
2023-04-02T05:13:18.743Z,101624.13
2023-04-02T05:13:57.650Z,101619.16
2023-04-02T05:14:49.347Z,101630.91
2023-04-02T05:15:32.312Z,101631.88
2023-04-02T05:16:20.720Z,101631.72
2023-04-02T05:16:58.108Z,101634.50
2023-04-02T05:17:57.772Z,101636.41
2023-04-02T05:18:34.392Z,101636.41
2023-04-02T05:19:14.198Z,101640.59
2023-04-02T05:19:51.964Z,101646.66
2023-04-02T05:20:28.533Z,101646.53
2023-04-02T05:21:20.398Z,101651.66
2023-04-02T05:22:00.301Z,101650.00
2023-04-02T05:22:54.108Z,101655.09
2023-04-02T05:23:30.752Z,101658.56
2023-04-02T05:24:27.962Z,101653.84
2023-04-02T05:25:14.482Z,101660.91
2023-04-02T05:25:58.053Z,101666.84
2023-04-02T05:26:32.552Z,101666.00
2023-04-02T05:27:21.523Z,101671.00
2023-04-02T05:28:16.190Z,101666.28
2023-04-02T05:28:50.786Z,101668.50
2023-04-02T05:29:26.811Z,101664.09
2023-04-02T05:30:24.650Z,101665.31
2023-04-02T05:31:14.638Z,101672.38
2023-04-02T05:31:55.399Z,101680.38
2023-04-02T05:32:32.156Z,101674.16
2023-04-02T05:33:08.152Z,101678.44
2023-04-02T05:33:45.846Z,101678.44
2023-04-02T05:34:24.991Z,101683.44
2023-04-02T05:34:57.387Z,101684.41
2023-04-02T05:35:34.302Z,101678.72
2023-04-02T05:36:27.907Z,101685.38
2023-04-02T05:37:01.983Z,101688.69
2023-04-02T05:37:34.193Z,101688.13
2023-04-02T05:38:06.629Z,101689.09
2023-04-02T05:38:43.722Z,101694.91
2023-04-02T05:39:22.118Z,101685.50
2023-04-02T05:40:01.004Z,101695.03
2023-04-02T05:40:37.347Z,101697.94
2023-04-02T05:41:21.954Z,101705.84
2023-04-02T05:42:03.935Z,101705.84
2023-04-02T05:42:56.720Z,101693.66
2023-04-02T05:43:30.741Z,101706.94
2023-04-02T05:44:28.041Z,101713.03
2023-04-02T05:45:20.710Z,101710.69
2023-04-02T05:45:54.926Z,101713.56
2023-04-02T05:46:32.652Z,101708.31
2023-04-02T05:47:13.688Z,101711.50
2023-04-02T05:47:47.022Z,101715.22
2023-04-02T05:48:33.671Z,101717.88
2023-04-02T05:49:10.177Z,101716.34
2023-04-02T05:49:46.353Z,101721.88
2023-04-02T05:50:30.290Z,101731.00
2023-04-02T05:51:04.856Z,101737.34
2023-04-02T05:51:46.235Z,101725.75
2023-04-02T05:52:23.752Z,101720.50
2023-04-02T05:53:16.842Z,101737.91
2023-04-02T05:53:55.043Z,101738.59
2023-04-02T05:54:34.275Z,101737.63
2023-04-02T05:55:26.279Z,101741.78
2023-04-02T05:56:18.752Z,101745.91
2023-04-02T05:56:56.334Z,101747.84
2023-04-02T05:57:43.184Z,101744.13
2023-04-02T05:58:36.001Z,101752.97
2023-04-02T05:59:26.232Z,101753.94
2023-04-02T06:00:05.867Z,101757.25
2023-04-02T06:01:13.584Z,101754.34
2023-04-02T06:01:58.826Z,101752.97
2023-04-02T06:02:43.273Z,101759.75
2023-04-02T06:03:37.169Z,101763.88
2023-04-02T06:04:29.777Z,101754.63
2023-04-02T06:05:05.373Z,101758.22
2023-04-02T06:05:42.477Z,101759.06
2023-04-02T06:06:19.711Z,101764.16
2023-04-02T06:07:23.080Z,101764.72
2023-04-02T06:08:07.819Z,101768.31
2023-04-02T06:08:49.205Z,101769.56
2023-04-02T06:09:31.949Z,101774.41
2023-04-02T06:10:09.508Z,101770.81
2023-04-02T06:11:00.421Z,101780.63
2023-04-02T06:11:42.105Z,101780.22
2023-04-02T06:12:31.231Z,101783.38
2023-04-02T06:13:08.744Z,101782.28
2023-04-02T06:13:46.805Z,101783.25
2023-04-02T06:14:18.746Z,101783.09
2023-04-02T06:14:52.680Z,101793.19
2023-04-02T06:15:25.350Z,101790.56
2023-04-02T06:16:02.208Z,101796.94
2023-04-02T06:16:38.452Z,101788.50
2023-04-02T06:17:17.433Z,101792.09
2023-04-02T06:18:04.786Z,101792.09
2023-04-02T06:18:37.531Z,101798.03
2023-04-02T06:19:16.619Z,101800.38
2023-04-02T06:19:49.085Z,101800.38
2023-04-02T06:20:21.251Z,101809.94
2023-04-02T06:20:53.107Z,101801.22
2023-04-02T06:21:26.061Z,101807.31
2023-04-02T06:22:08.563Z,101802.88
2023-04-02T06:22:43.595Z,101800.53
2023-04-02T06:23:22.252Z,101804.25
2023-04-02T06:23:59.258Z,101806.75
2023-04-02T06:24:33.292Z,101805.63
2023-04-02T06:25:32.081Z,101810.63
2023-04-02T06:26:19.615Z,101810.19
2023-04-02T06:26:56.745Z,101813.38
2023-04-02T06:27:29.208Z,101810.63
2023-04-02T06:28:04.127Z,101813.94
2023-04-02T06:28:43.847Z,101817.13
2023-04-02T06:29:39.885Z,101817.81
2023-04-02T06:30:21.230Z,101810.06
2023-04-02T06:31:00.821Z,101813.25
2023-04-02T06:31:46.889Z,101817.25
2023-04-02T06:32:24.165Z,101819.47
2023-04-02T06:32:56.531Z,101820.91
2023-04-02T06:33:28.986Z,101821.28
2023-04-02T06:34:00.930Z,101818.09
2023-04-02T06:34:33.519Z,101820.84
2023-04-02T06:35:15.167Z,101820.28
2023-04-02T06:35:51.226Z,101815.88
2023-04-02T06:36:30.573Z,101826.66
2023-04-02T06:37:15.923Z,101818.34
2023-04-02T06:37:50.332Z,101818.06
2023-04-02T06:38:28.386Z,101818.50
2023-04-02T06:39:06.704Z,101826.09
2023-04-02T06:39:38.847Z,101824.31
2023-04-02T06:40:41.980Z,101824.72
2023-04-02T06:41:25.899Z,101836.63
2023-04-02T06:42:19.911Z,101836.06
2023-04-02T06:43:26.895Z,101841.06
2023-04-02T06:44:21.568Z,101839.16
2023-04-02T06:45:21.492Z,101842.47
2023-04-02T06:46:38.235Z,101844.69
2023-04-02T06:47:36.482Z,101844.41
2023-04-02T06:48:15.624Z,101842.97
2023-04-02T06:48:51.392Z,101838.13
2023-04-02T06:49:47.853Z,101839.09
2023-04-02T06:50:23.549Z,101839.66
2023-04-02T06:51:01.144Z,101845.03
2023-04-02T06:51:34.395Z,101849.59
2023-04-02T06:52:16.029Z,101841.59
2023-04-02T06:52:53.793Z,101833.00
2023-04-02T06:53:34.887Z,101839.66
2023-04-02T06:54:14.076Z,101848.50
2023-04-02T06:54:46.599Z,101844.78
2023-04-02T06:55:21.017Z,101845.19
2023-04-02T06:55:59.222Z,101851.00
2023-04-02T06:56:49.393Z,101853.47
2023-04-02T06:57:26.850Z,101862.34
2023-04-02T06:57:58.790Z,101858.88
2023-04-02T06:58:30.568Z,101863.75
2023-04-02T06:59:04.688Z,101863.75
2023-04-02T06:59:36.576Z,101865.16
2023-04-02T07:00:26.661Z,101867.63
2023-04-02T07:00:58.414Z,101869.31
2023-04-02T07:02:04.600Z,101870.09
2023-04-02T07:02:38.968Z,101869.25
2023-04-02T07:03:24.594Z,101878.84
2023-04-02T07:03:57.740Z,101875.22
2023-04-02T07:04:34.703Z,101864.53
2023-04-02T07:05:09.370Z,101877.25
2023-04-02T07:05:43.861Z,101876.41
2023-04-02T07:06:17.465Z,101881.38
2023-04-02T07:06:51.046Z,101894.66
2023-04-02T07:07:22.669Z,101886.22
2023-04-02T07:07:54.557Z,101885.63
2023-04-02T07:08:26.444Z,101887.41
2023-04-02T07:08:58.028Z,101891.97
2023-04-02T07:09:30.863Z,101893.91
2023-04-02T07:10:06.983Z,101898.19
2023-04-02T07:10:38.548Z,101895.69
2023-04-02T07:11:21.891Z,101895.44
2023-04-02T07:11:55.866Z,101910.44
2023-04-02T07:12:27.436Z,101893.72
2023-04-02T07:13:02.452Z,101893.72
2023-04-02T07:13:34.139Z,101900.50
2023-04-02T07:14:07.757Z,101907.03
2023-04-02T07:14:39.484Z,101910.13
2023-04-02T07:15:19.264Z,101907.03
2023-04-02T07:15:52.938Z,101917.03
2023-04-02T07:16:26.413Z,101908.41
2023-04-02T07:16:58.377Z,101917.84
2023-04-02T07:17:30.406Z,101915.09
2023-04-02T07:18:02.098Z,101909.31
2023-04-02T07:18:34.128Z,101910.69
2023-04-02T07:19:17.303Z,101914.28
2023-04-02T07:19:51.872Z,101913.59
2023-04-02T07:20:28.264Z,101917.31
2023-04-02T07:21:01.404Z,101917.88
2023-04-02T07:21:33.023Z,101912.09
2023-04-02T07:22:04.822Z,101920.78
2023-04-02T07:22:41.682Z,101923.13
2023-04-02T07:23:15.260Z,101928.53
2023-04-02T07:23:48.428Z,101923.94
2023-04-02T07:24:23.501Z,101921.75
2023-04-02T07:24:55.258Z,101923.69
2023-04-02T07:25:27.317Z,101925.34
2023-04-02T07:26:02.189Z,101929.34
2023-04-02T07:26:33.754Z,101928.78
2023-04-02T07:27:05.295Z,101925.19
2023-04-02T07:27:37.122Z,101930.06
2023-04-02T07:28:08.692Z,101926.31
2023-04-02T07:28:40.455Z,101929.75
2023-04-02T07:29:14.943Z,101938.72
2023-04-02T07:29:46.602Z,101936.81
2023-04-02T07:30:18.610Z,101935.03
2023-04-02T07:30:51.531Z,101935.59
2023-04-02T07:31:25.933Z,101944.63
2023-04-02T07:31:57.617Z,101938.16
2023-04-02T07:32:29.358Z,101937.88
2023-04-02T07:33:01.736Z,101944.75
2023-04-02T07:33:33.386Z,101946.16
2023-04-02T07:34:06.516Z,101940.03
2023-04-02T07:34:39.176Z,101945.00
2023-04-02T07:35:11.093Z,101942.66
2023-04-02T07:35:43.750Z,101948.19